Marble Canyon, Arizona
Current Conditions -  °F | °C
As of 5:54 PM on Saturday 22 Nov 2014 (Local Time) from KGCN Reporting Station
Clear Clear  
Wind Chill: 41°   Ceiling: Unl
Heat Index: 47°   Visibility: 10mi
Dew Point: 16°   Wind: 15mph
Humidity: 29%   Direction: 240°WSW
Pressure: 30"   Gusts: NA
Location:  36.82°N, 111.64°W
Report Text: KGCN 230054Z 24013KT 10SM CLR 08/M09 A3000 RMK AO2 SLP160 T00831089
Loading
Personal Weather Stations






























Interactive Weather Map New forecast layout! Learn more

10-Day Weather Forecast

Advertisements
Track Severe Weather on mobile